sensor_id;sensor_type;location;lat;lon;timestamp;P1;durP1;ratioP1;P2;durP2;ratioP2
16922;SDS011;8578;50.938;13.556;2022-08-01T00:00:07;3.27;;;2.80;;
16922;SDS011;8578;50.938;13.556;2022-08-01T00:02:35;3.13;;;2.50;;
16922;SDS011;8578;50.938;13.556;2022-08-01T00:05:06;3.07;;;2.73;;
16922;SDS011;8578;50.938;13.556;2022-08-01T00:07:34;3.87;;;2.70;;
16922;SDS011;8578;50.938;13.556;2022-08-01T00:10:01;3.77;;;2.97;;
16922;SDS011;8578;50.938;13.556;2022-08-01T00:12:29;3.87;;;2.77;;
16922;SDS011;8578;50.938;13.556;2022-08-01T00:14:57;4.47;;;2.67;;
16922;SDS011;8578;50.938;13.556;2022-08-01T00:17:24;4.80;;;2.50;;
16922;SDS011;8578;50.938;13.556;2022-08-01T00:19:51;6.43;;;3.30;;
16922;SDS011;8578;50.938;13.556;2022-08-01T00:22:20;2.60;;;2.40;;
16922;SDS011;8578;50.938;13.556;2022-08-01T00:24:48;2.67;;;2.40;;
16922;SDS011;8578;50.938;13.556;2022-08-01T00:27:15;5.67;;;2.70;;
16922;SDS011;8578;50.938;13.556;2022-08-01T00:29:43;3.03;;;2.30;;
16922;SDS011;8578;50.938;13.556;2022-08-01T00:32:30;2.40;;;2.20;;
16922;SDS011;8578;50.938;13.556;2022-08-01T00:34:58;5.10;;;3.10;;
16922;SDS011;8578;50.938;13.556;2022-08-01T00:37:26;4.27;;;2.60;;
16922;SDS011;8578;50.938;13.556;2022-08-01T00:39:54;5.47;;;2.33;;
16922;SDS011;8578;50.938;13.556;2022-08-01T00:42:21;4.93;;;2.77;;
16922;SDS011;8578;50.938;13.556;2022-08-01T00:44:49;3.47;;;2.60;;
16922;SDS011;8578;50.938;13.556;2022-08-01T00:47:16;3.57;;;2.57;;
16922;SDS011;8578;50.938;13.556;2022-08-01T00:49:43;2.87;;;2.57;;
16922;SDS011;8578;50.938;13.556;2022-08-01T00:52:11;3.47;;;2.83;;
16922;SDS011;8578;50.938;13.556;2022-08-01T00:54:40;2.73;;;2.47;;
16922;SDS011;8578;50.938;13.556;2022-08-01T00:57:07;3.20;;;2.83;;
16922;SDS011;8578;50.938;13.556;2022-08-01T00:59:36;3.00;;;2.70;;
16922;SDS011;8578;50.938;13.556;2022-08-01T01:02:06;4.17;;;2.67;;
16922;SDS011;8578;50.938;13.556;2022-08-01T01:04:41;3.73;;;2.90;;
16922;SDS011;8578;50.938;13.556;2022-08-01T01:07:09;3.23;;;2.93;;
16922;SDS011;8578;50.938;13.556;2022-08-01T01:09:41;3.23;;;2.60;;
16922;SDS011;8578;50.938;13.556;2022-08-01T01:12:15;4.03;;;2.70;;
16922;SDS011;8578;50.938;13.556;2022-08-01T01:14:50;4.67;;;3.10;;
16922;SDS011;8578;50.938;13.556;2022-08-01T01:17:21;3.20;;;2.90;;
16922;SDS011;8578;50.938;13.556;2022-08-01T01:20:12;2.97;;;2.60;;
16922;SDS011;8578;50.938;13.556;2022-08-01T01:22:46;3.67;;;2.80;;
16922;SDS011;8578;50.938;13.556;2022-08-01T01:25:24;6.50;;;2.97;;
16922;SDS011;8578;50.938;13.556;2022-08-01T01:27:57;2.67;;;2.47;;
16922;SDS011;8578;50.938;13.556;2022-08-01T01:30:29;3.40;;;2.70;;
16922;SDS011;8578;50.938;13.556;2022-08-01T01:32:58;3.40;;;2.60;;
16922;SDS011;8578;50.938;13.556;2022-08-01T01:35:28;4.10;;;2.50;;
16922;SDS011;8578;50.938;13.556;2022-08-01T01:37:58;3.07;;;2.77;;
16922;SDS011;8578;50.938;13.556;2022-08-01T01:40:27;4.07;;;2.60;;
16922;SDS011;8578;50.938;13.556;2022-08-01T01:42:56;5.50;;;2.70;;
16922;SDS011;8578;50.938;13.556;2022-08-01T01:45:24;3.30;;;2.80;;
16922;SDS011;8578;50.938;13.556;2022-08-01T01:47:53;4.70;;;3.13;;
16922;SDS011;8578;50.938;13.556;2022-08-01T01:50:21;3.27;;;2.90;;
16922;SDS011;8578;50.938;13.556;2022-08-01T01:52:49;3.37;;;3.07;;
16922;SDS011;8578;50.938;13.556;2022-08-01T01:55:18;3.00;;;2.70;;
16922;SDS011;8578;50.938;13.556;2022-08-01T01:57:46;5.30;;;2.87;;
16922;SDS011;8578;50.938;13.556;2022-08-01T02:00:15;5.87;;;3.27;;
16922;SDS011;8578;50.938;13.556;2022-08-01T02:02:43;8.40;;;2.93;;
16922;SDS011;8578;50.938;13.556;2022-08-01T02:05:13;3.13;;;2.83;;
16922;SDS011;8578;50.938;13.556;2022-08-01T02:07:40;7.77;;;3.33;;
16922;SDS011;8578;50.938;13.556;2022-08-01T02:10:08;3.07;;;2.73;;
16922;SDS011;8578;50.938;13.556;2022-08-01T02:12:37;3.47;;;3.10;;
16922;SDS011;8578;50.938;13.556;2022-08-01T02:15:06;3.10;;;2.80;;
16922;SDS011;8578;50.938;13.556;2022-08-01T02:17:36;3.33;;;2.97;;
16922;SDS011;8578;50.938;13.556;2022-08-01T02:20:05;3.90;;;3.50;;
16922;SDS011;8578;50.938;13.556;2022-08-01T02:22:34;3.67;;;3.00;;
16922;SDS011;8578;50.938;13.556;2022-08-01T02:25:05;3.80;;;2.70;;
16922;SDS011;8578;50.938;13.556;2022-08-01T02:27:36;3.20;;;2.90;;
16922;SDS011;8578;50.938;13.556;2022-08-01T02:30:08;3.03;;;2.73;;
16922;SDS011;8578;50.938;13.556;2022-08-01T02:32:37;3.20;;;2.90;;
16922;SDS011;8578;50.938;13.556;2022-08-01T02:35:06;6.13;;;3.10;;
16922;SDS011;8578;50.938;13.556;2022-08-01T02:37:36;3.20;;;2.70;;
16922;SDS011;8578;50.938;13.556;2022-08-01T02:40:12;3.83;;;3.27;;
16922;SDS011;8578;50.938;13.556;2022-08-01T02:42:40;6.03;;;3.57;;
16922;SDS011;8578;50.938;13.556;2022-08-01T02:45:10;3.97;;;3.00;;
16922;SDS011;8578;50.938;13.556;2022-08-01T02:47:40;3.37;;;2.90;;
16922;SDS011;8578;50.938;13.556;2022-08-01T02:50:09;3.83;;;2.87;;
16922;SDS011;8578;50.938;13.556;2022-08-01T02:52:39;3.20;;;2.90;;
16922;SDS011;8578;50.938;13.556;2022-08-01T02:55:08;4.20;;;2.60;;
16922;SDS011;8578;50.938;13.556;2022-08-01T02:57:36;3.17;;;2.90;;
16922;SDS011;8578;50.938;13.556;2022-08-01T03:00:17;3.20;;;2.90;;
16922;SDS011;8578;50.938;13.556;2022-08-01T03:02:49;2.97;;;2.63;;
16922;SDS011;8578;50.938;13.556;2022-08-01T03:05:19;3.63;;;3.10;;
16922;SDS011;8578;50.938;13.556;2022-08-01T03:07:48;3.87;;;3.00;;
16922;SDS011;8578;50.938;13.556;2022-08-01T03:10:16;3.83;;;2.80;;
16922;SDS011;8578;50.938;13.556;2022-08-01T03:12:44;4.10;;;2.70;;
16922;SDS011;8578;50.938;13.556;2022-08-01T03:15:13;3.10;;;2.67;;
16922;SDS011;8578;50.938;13.556;2022-08-01T03:17:41;3.20;;;2.90;;
16922;SDS011;8578;50.938;13.556;2022-08-01T03:20:10;3.20;;;2.90;;
16922;SDS011;8578;50.938;13.556;2022-08-01T03:22:38;4.03;;;2.70;;
16922;SDS011;8578;50.938;13.556;2022-08-01T03:25:08;3.00;;;2.70;;
16922;SDS011;8578;50.938;13.556;2022-08-01T03:27:36;4.63;;;3.40;;
16922;SDS011;8578;50.938;13.556;2022-08-01T03:30:04;3.57;;;2.97;;
16922;SDS011;8578;50.938;13.556;2022-08-01T03:32:32;4.63;;;3.00;;
16922;SDS011;8578;50.938;13.556;2022-08-01T03:35:00;5.77;;;3.30;;
16922;SDS011;8578;50.938;13.556;2022-08-01T03:37:30;4.97;;;3.30;;
16922;SDS011;8578;50.938;13.556;2022-08-01T03:40:00;3.13;;;2.83;;
16922;SDS011;8578;50.938;13.556;2022-08-01T03:42:33;4.70;;;3.30;;
16922;SDS011;8578;50.938;13.556;2022-08-01T03:45:02;3.40;;;2.70;;
16922;SDS011;8578;50.938;13.556;2022-08-01T03:47:31;5.67;;;3.07;;
16922;SDS011;8578;50.938;13.556;2022-08-01T03:50:06;3.40;;;2.80;;
16922;SDS011;8578;50.938;13.556;2022-08-01T03:52:38;4.37;;;2.83;;
16922;SDS011;8578;50.938;13.556;2022-08-01T03:55:06;4.23;;;3.17;;
16922;SDS011;8578;50.938;13.556;2022-08-01T03:57:36;4.23;;;3.00;;
16922;SDS011;8578;50.938;13.556;2022-08-01T04:00:04;3.83;;;2.83;;
16922;SDS011;8578;50.938;13.556;2022-08-01T04:02:38;3.80;;;3.10;;
16922;SDS011;8578;50.938;13.556;2022-08-01T04:05:06;3.80;;;2.90;;
16922;SDS011;8578;50.938;13.556;2022-08-01T04:07:34;3.83;;;3.17;;
16922;SDS011;8578;50.938;13.556;2022-08-01T04:10:03;4.80;;;2.90;;
16922;SDS011;8578;50.938;13.556;2022-08-01T04:12:31;3.53;;;3.23;;
16922;SDS011;8578;50.938;13.556;2022-08-01T04:15:00;5.57;;;3.17;;
16922;SDS011;8578;50.938;13.556;2022-08-01T04:17:27;3.90;;;3.23;;
16922;SDS011;8578;50.938;13.556;2022-08-01T04:19:55;4.47;;;3.10;;
16922;SDS011;8578;50.938;13.556;2022-08-01T04:22:22;3.53;;;3.10;;
16922;SDS011;8578;50.938;13.556;2022-08-01T04:24:51;3.67;;;3.10;;
16922;SDS011;8578;50.938;13.556;2022-08-01T04:27:23;3.83;;;3.33;;
16922;SDS011;8578;50.938;13.556;2022-08-01T04:30:12;5.17;;;3.20;;
16922;SDS011;8578;50.938;13.556;2022-08-01T04:32:46;5.90;;;3.50;;
16922;SDS011;8578;50.938;13.556;2022-08-01T04:35:13;4.47;;;3.67;;
16922;SDS011;8578;50.938;13.556;2022-08-01T04:38:03;3.30;;;3.00;;
16922;SDS011;8578;50.938;13.556;2022-08-01T04:40:30;7.10;;;3.17;;
16922;SDS011;8578;50.938;13.556;2022-08-01T04:42:59;4.23;;;3.60;;
16922;SDS011;8578;50.938;13.556;2022-08-01T04:45:28;5.33;;;3.40;;
16922;SDS011;8578;50.938;13.556;2022-08-01T04:47:56;3.50;;;3.20;;
16922;SDS011;8578;50.938;13.556;2022-08-01T04:50:24;4.23;;;3.13;;
16922;SDS011;8578;50.938;13.556;2022-08-01T04:52:51;3.70;;;2.93;;
16922;SDS011;8578;50.938;13.556;2022-08-01T04:55:19;4.60;;;3.00;;
16922;SDS011;8578;50.938;13.556;2022-08-01T04:57:47;4.27;;;3.00;;
16922;SDS011;8578;50.938;13.556;2022-08-01T05:00:15;3.73;;;2.77;;
16922;SDS011;8578;50.938;13.556;2022-08-01T05:02:44;3.30;;;2.97;;
16922;SDS011;8578;50.938;13.556;2022-08-01T05:05:12;4.27;;;3.03;;
16922;SDS011;8578;50.938;13.556;2022-08-01T05:07:41;2.90;;;2.70;;
16922;SDS011;8578;50.938;13.556;2022-08-01T05:10:10;3.70;;;2.70;;
16922;SDS011;8578;50.938;13.556;2022-08-01T05:12:38;2.80;;;2.60;;
16922;SDS011;8578;50.938;13.556;2022-08-01T05:15:06;3.20;;;2.90;;
16922;SDS011;8578;50.938;13.556;2022-08-01T05:17:40;3.10;;;2.80;;
16922;SDS011;8578;50.938;13.556;2022-08-01T05:20:10;4.40;;;2.97;;
16922;SDS011;8578;50.938;13.556;2022-08-01T05:22:38;3.23;;;2.50;;
16922;SDS011;8578;50.938;13.556;2022-08-01T05:25:06;3.03;;;2.50;;
16922;SDS011;8578;50.938;13.556;2022-08-01T05:27:34;3.63;;;2.60;;
16922;SDS011;8578;50.938;13.556;2022-08-01T05:30:06;4.70;;;2.70;;
16922;SDS011;8578;50.938;13.556;2022-08-01T05:32:34;2.90;;;2.37;;
16922;SDS011;8578;50.938;13.556;2022-08-01T05:35:01;3.60;;;2.47;;
16922;SDS011;8578;50.938;13.556;2022-08-01T05:37:30;2.50;;;2.27;;
16922;SDS011;8578;50.938;13.556;2022-08-01T05:39:58;2.57;;;2.30;;
16922;SDS011;8578;50.938;13.556;2022-08-01T05:42:25;3.33;;;2.00;;
16922;SDS011;8578;50.938;13.556;2022-08-01T05:44:53;5.17;;;2.33;;
16922;SDS011;8578;50.938;13.556;2022-08-01T05:47:20;3.37;;;2.30;;
16922;SDS011;8578;50.938;13.556;2022-08-01T05:49:48;2.20;;;2.00;;
16922;SDS011;8578;50.938;13.556;2022-08-01T05:52:15;2.33;;;2.00;;
16922;SDS011;8578;50.938;13.556;2022-08-01T05:54:44;2.20;;;2.00;;
16922;SDS011;8578;50.938;13.556;2022-08-01T05:57:11;3.23;;;2.00;;
16922;SDS011;8578;50.938;13.556;2022-08-01T05:59:40;3.87;;;1.90;;
16922;SDS011;8578;50.938;13.556;2022-08-01T06:02:07;4.07;;;2.00;;
16922;SDS011;8578;50.938;13.556;2022-08-01T06:04:35;1.90;;;1.80;;
16922;SDS011;8578;50.938;13.556;2022-08-01T06:07:03;2.80;;;1.90;;
16922;SDS011;8578;50.938;13.556;2022-08-01T06:09:30;2.20;;;2.00;;
16922;SDS011;8578;50.938;13.556;2022-08-01T06:11:59;4.23;;;2.37;;
16922;SDS011;8578;50.938;13.556;2022-08-01T06:14:26;2.03;;;1.83;;
16922;SDS011;8578;50.938;13.556;2022-08-01T06:16:54;2.60;;;2.20;;
16922;SDS011;8578;50.938;13.556;2022-08-01T06:19:21;3.30;;;2.20;;
16922;SDS011;8578;50.938;13.556;2022-08-01T06:21:49;1.90;;;1.70;;
16922;SDS011;8578;50.938;13.556;2022-08-01T06:24:16;2.40;;;1.80;;
16922;SDS011;8578;50.938;13.556;2022-08-01T06:26:43;2.20;;;2.00;;
16922;SDS011;8578;50.938;13.556;2022-08-01T06:29:12;3.00;;;2.10;;
16922;SDS011;8578;50.938;13.556;2022-08-01T06:31:40;3.20;;;2.37;;
16922;SDS011;8578;50.938;13.556;2022-08-01T06:34:07;2.73;;;2.40;;
16922;SDS011;8578;50.938;13.556;2022-08-01T06:36:35;3.73;;;2.40;;
16922;SDS011;8578;50.938;13.556;2022-08-01T06:39:02;2.83;;;2.40;;
16922;SDS011;8578;50.938;13.556;2022-08-01T06:41:29;3.60;;;2.23;;
16922;SDS011;8578;50.938;13.556;2022-08-01T06:43:57;3.30;;;2.50;;
16922;SDS011;8578;50.938;13.556;2022-08-01T06:46:27;2.70;;;2.50;;
16922;SDS011;8578;50.938;13.556;2022-08-01T06:48:57;2.80;;;2.60;;
16922;SDS011;8578;50.938;13.556;2022-08-01T06:51:25;2.80;;;2.60;;
16922;SDS011;8578;50.938;13.556;2022-08-01T06:53:52;2.90;;;2.70;;
16922;SDS011;8578;50.938;13.556;2022-08-01T06:56:20;2.50;;;2.30;;
16922;SDS011;8578;50.938;13.556;2022-08-01T06:58:48;4.37;;;2.77;;
16922;SDS011;8578;50.938;13.556;2022-08-01T07:01:16;3.23;;;2.60;;
16922;SDS011;8578;50.938;13.556;2022-08-01T07:03:45;2.70;;;2.50;;
16922;SDS011;8578;50.938;13.556;2022-08-01T07:06:20;4.27;;;2.90;;
16922;SDS011;8578;50.938;13.556;2022-08-01T07:08:48;4.00;;;2.77;;
16922;SDS011;8578;50.938;13.556;2022-08-01T07:11:15;3.40;;;2.90;;
16922;SDS011;8578;50.938;13.556;2022-08-01T07:13:43;3.67;;;3.37;;
16922;SDS011;8578;50.938;13.556;2022-08-01T07:16:11;4.27;;;3.70;;
16922;SDS011;8578;50.938;13.556;2022-08-01T07:18:39;5.17;;;4.00;;
16922;SDS011;8578;50.938;13.556;2022-08-01T07:21:08;3.67;;;3.37;;
16922;SDS011;8578;50.938;13.556;2022-08-01T07:23:56;4.77;;;3.80;;
16922;SDS011;8578;50.938;13.556;2022-08-01T07:26:25;4.43;;;3.57;;
16922;SDS011;8578;50.938;13.556;2022-08-01T07:28:53;5.93;;;4.13;;
16922;SDS011;8578;50.938;13.556;2022-08-01T07:31:21;4.37;;;3.97;;
16922;SDS011;8578;50.938;13.556;2022-08-01T07:33:49;4.77;;;4.27;;
16922;SDS011;8578;50.938;13.556;2022-08-01T07:36:18;5.80;;;4.07;;
16922;SDS011;8578;50.938;13.556;2022-08-01T07:38:46;4.83;;;3.77;;
16922;SDS011;8578;50.938;13.556;2022-08-01T07:41:13;4.90;;;4.27;;
16922;SDS011;8578;50.938;13.556;2022-08-01T07:43:41;3.73;;;3.43;;
16922;SDS011;8578;50.938;13.556;2022-08-01T07:46:21;3.80;;;3.50;;
16922;SDS011;8578;50.938;13.556;2022-08-01T07:48:49;3.50;;;3.20;;
16922;SDS011;8578;50.938;13.556;2022-08-01T07:51:17;4.00;;;3.70;;
16922;SDS011;8578;50.938;13.556;2022-08-01T07:53:45;6.77;;;3.60;;
16922;SDS011;8578;50.938;13.556;2022-08-01T07:56:12;3.63;;;3.30;;
16922;SDS011;8578;50.938;13.556;2022-08-01T07:58:40;4.10;;;3.67;;
16922;SDS011;8578;50.938;13.556;2022-08-01T08:01:07;3.10;;;2.50;;
16922;SDS011;8578;50.938;13.556;2022-08-01T08:03:34;3.57;;;3.07;;
16922;SDS011;8578;50.938;13.556;2022-08-01T08:06:02;4.37;;;3.07;;
16922;SDS011;8578;50.938;13.556;2022-08-01T08:08:31;2.70;;;2.50;;
16922;SDS011;8578;50.938;13.556;2022-08-01T08:11:00;3.03;;;2.73;;
16922;SDS011;8578;50.938;13.556;2022-08-01T08:13:28;3.50;;;3.20;;
16922;SDS011;8578;50.938;13.556;2022-08-01T08:15:55;3.73;;;3.13;;
16922;SDS011;8578;50.938;13.556;2022-08-01T08:18:24;3.50;;;3.20;;
16922;SDS011;8578;50.938;13.556;2022-08-01T08:20:52;4.40;;;4.00;;
16922;SDS011;8578;50.938;13.556;2022-08-01T08:23:19;4.50;;;4.10;;
16922;SDS011;8578;50.938;13.556;2022-08-01T08:26:10;5.50;;;4.30;;
16922;SDS011;8578;50.938;13.556;2022-08-01T08:28:37;11.77;;;4.90;;
16922;SDS011;8578;50.938;13.556;2022-08-01T08:31:06;6.53;;;5.93;;
16922;SDS011;8578;50.938;13.556;2022-08-01T08:33:54;5.67;;;4.93;;
16922;SDS011;8578;50.938;13.556;2022-08-01T08:36:21;4.57;;;4.17;;
16922;SDS011;8578;50.938;13.556;2022-08-01T08:38:56;5.27;;;4.17;;
16922;SDS011;8578;50.938;13.556;2022-08-01T08:41:26;3.97;;;3.60;;
16922;SDS011;8578;50.938;13.556;2022-08-01T08:44:03;3.50;;;3.20;;
16922;SDS011;8578;50.938;13.556;2022-08-01T08:46:37;4.80;;;4.30;;
16922;SDS011;8578;50.938;13.556;2022-08-01T08:49:07;5.00;;;4.50;;
16922;SDS011;8578;50.938;13.556;2022-08-01T08:51:37;5.63;;;4.63;;
16922;SDS011;8578;50.938;13.556;2022-08-01T08:54:05;5.13;;;3.87;;
16922;SDS011;8578;50.938;13.556;2022-08-01T08:56:34;4.10;;;3.70;;
16922;SDS011;8578;50.938;13.556;2022-08-01T08:59:02;3.53;;;3.23;;
16922;SDS011;8578;50.938;13.556;2022-08-01T09:01:30;3.27;;;2.97;;
16922;SDS011;8578;50.938;13.556;2022-08-01T09:03:58;3.33;;;2.80;;
16922;SDS011;8578;50.938;13.556;2022-08-01T09:06:26;3.00;;;2.70;;
16922;SDS011;8578;50.938;13.556;2022-08-01T09:08:54;2.53;;;2.33;;
16922;SDS011;8578;50.938;13.556;2022-08-01T09:11:21;3.63;;;2.30;;
16922;SDS011;8578;50.938;13.556;2022-08-01T09:14:02;2.60;;;2.40;;
16922;SDS011;8578;50.938;13.556;2022-08-01T09:16:30;2.33;;;2.00;;
16922;SDS011;8578;50.938;13.556;2022-08-01T09:19:07;3.03;;;2.73;;
16922;SDS011;8578;50.938;13.556;2022-08-01T09:21:56;4.53;;;2.77;;
16922;SDS011;8578;50.938;13.556;2022-08-01T09:24:24;2.57;;;2.10;;
16922;SDS011;8578;50.938;13.556;2022-08-01T09:26:56;2.40;;;2.20;;
16922;SDS011;8578;50.938;13.556;2022-08-01T09:29:27;2.30;;;2.10;;
16922;SDS011;8578;50.938;13.556;2022-08-01T09:32:06;2.33;;;2.13;;
16922;SDS011;8578;50.938;13.556;2022-08-01T09:34:41;2.43;;;1.93;;
16922;SDS011;8578;50.938;13.556;2022-08-01T09:37:08;2.47;;;2.00;;
16922;SDS011;8578;50.938;13.556;2022-08-01T09:39:39;2.77;;;2.00;;
16922;SDS011;8578;50.938;13.556;2022-08-01T09:42:18;2.83;;;1.70;;
16922;SDS011;8578;50.938;13.556;2022-08-01T09:44:55;2.23;;;1.90;;
16922;SDS011;8578;50.938;13.556;2022-08-01T09:47:23;1.70;;;1.60;;
16922;SDS011;8578;50.938;13.556;2022-08-01T09:50:04;1.30;;;1.20;;
16922;SDS011;8578;50.938;13.556;2022-08-01T09:52:36;1.27;;;1.17;;
16922;SDS011;8578;50.938;13.556;2022-08-01T09:55:06;3.00;;;1.33;;
16922;SDS011;8578;50.938;13.556;2022-08-01T09:57:34;1.20;;;1.10;;
16922;SDS011;8578;50.938;13.556;2022-08-01T10:00:03;1.23;;;1.13;;
16922;SDS011;8578;50.938;13.556;2022-08-01T10:02:38;1.00;;;1.00;;
16922;SDS011;8578;50.938;13.556;2022-08-01T10:05:07;1.10;;;1.00;;
16922;SDS011;8578;50.938;13.556;2022-08-01T10:07:35;2.10;;;1.10;;
16922;SDS011;8578;50.938;13.556;2022-08-01T10:10:10;1.13;;;1.03;;
16922;SDS011;8578;50.938;13.556;2022-08-01T10:12:39;2.07;;;1.00;;
16922;SDS011;8578;50.938;13.556;2022-08-01T10:15:12;1.43;;;1.33;;
16922;SDS011;8578;50.938;13.556;2022-08-01T10:17:45;1.57;;;1.27;;
16922;SDS011;8578;50.938;13.556;2022-08-01T10:20:17;1.20;;;1.10;;
16922;SDS011;8578;50.938;13.556;2022-08-01T10:22:58;0.93;;;0.90;;
16922;SDS011;8578;50.938;13.556;2022-08-01T10:25:28;1.17;;;1.10;;
16922;SDS011;8578;50.938;13.556;2022-08-01T10:28:13;1.27;;;1.10;;
16922;SDS011;8578;50.938;13.556;2022-08-01T10:30:48;1.00;;;1.00;;
16922;SDS011;8578;50.938;13.556;2022-08-01T10:33:18;1.30;;;1.20;;
16922;SDS011;8578;50.938;13.556;2022-08-01T10:36:05;1.20;;;1.10;;
16922;SDS011;8578;50.938;13.556;2022-08-01T10:38:34;2.10;;;1.27;;
16922;SDS011;8578;50.938;13.556;2022-08-01T10:41:05;2.37;;;1.10;;
16922;SDS011;8578;50.938;13.556;2022-08-01T10:43:34;0.80;;;0.80;;
16922;SDS011;8578;50.938;13.556;2022-08-01T10:46:04;0.67;;;0.67;;
16922;SDS011;8578;50.938;13.556;2022-08-01T10:48:36;0.83;;;0.70;;
16922;SDS011;8578;50.938;13.556;2022-08-01T10:51:05;1.57;;;0.50;;
16922;SDS011;8578;50.938;13.556;2022-08-01T10:53:47;0.90;;;0.60;;
16922;SDS011;8578;50.938;13.556;2022-08-01T10:56:15;0.60;;;0.60;;
16922;SDS011;8578;50.938;13.556;2022-08-01T10:58:43;1.33;;;0.60;;
16922;SDS011;8578;50.938;13.556;2022-08-01T11:01:22;0.40;;;0.40;;
16922;SDS011;8578;50.938;13.556;2022-08-01T11:03:58;0.30;;;0.30;;
16922;SDS011;8578;50.938;13.556;2022-08-01T11:06:35;1.03;;;0.30;;
16922;SDS011;8578;50.938;13.556;2022-08-01T11:09:04;0.30;;;0.30;;
16922;SDS011;8578;50.938;13.556;2022-08-01T11:11:32;0.37;;;0.30;;
16922;SDS011;8578;50.938;13.556;2022-08-01T11:14:03;0.53;;;0.30;;
16922;SDS011;8578;50.938;13.556;2022-08-01T11:16:36;1.60;;;0.40;;
16922;SDS011;8578;50.938;13.556;2022-08-01T11:19:07;0.63;;;0.50;;
16922;SDS011;8578;50.938;13.556;2022-08-01T11:27:16;1.53;;;0.67;;
16922;SDS011;8578;50.938;13.556;2022-08-01T11:29:51;1.03;;;0.90;;
16922;SDS011;8578;50.938;13.556;2022-08-01T11:32:46;1.00;;;0.90;;
16922;SDS011;8578;50.938;13.556;2022-08-01T11:35:34;1.10;;;1.00;;
16922;SDS011;8578;50.938;13.556;2022-08-01T11:40:44;1.00;;;1.00;;
16922;SDS011;8578;50.938;13.556;2022-08-01T11:43:18;1.30;;;1.20;;
16922;SDS011;8578;50.938;13.556;2022-08-01T11:45:48;1.30;;;1.20;;
16922;SDS011;8578;50.938;13.556;2022-08-01T11:48:21;2.53;;;1.10;;
16922;SDS011;8578;50.938;13.556;2022-08-01T11:50:53;1.50;;;1.40;;
16922;SDS011;8578;50.938;13.556;2022-08-01T11:53:21;1.63;;;1.53;;
16922;SDS011;8578;50.938;13.556;2022-08-01T11:55:52;1.93;;;1.53;;
16922;SDS011;8578;50.938;13.556;2022-08-01T11:58:20;1.77;;;1.50;;
16922;SDS011;8578;50.938;13.556;2022-08-01T12:00:57;1.73;;;1.60;;
16922;SDS011;8578;50.938;13.556;2022-08-01T12:03:27;1.57;;;1.47;;
16922;SDS011;8578;50.938;13.556;2022-08-01T12:05:59;2.23;;;1.60;;
16922;SDS011;8578;50.938;13.556;2022-08-01T12:08:26;1.63;;;1.53;;
16922;SDS011;8578;50.938;13.556;2022-08-01T12:10:54;1.90;;;1.80;;
16922;SDS011;8578;50.938;13.556;2022-08-01T12:13:28;1.50;;;1.40;;
16922;SDS011;8578;50.938;13.556;2022-08-01T12:15:56;1.40;;;1.30;;
16922;SDS011;8578;50.938;13.556;2022-08-01T12:18:38;1.67;;;1.27;;
16922;SDS011;8578;50.938;13.556;2022-08-01T12:21:06;0.90;;;0.90;;
16922;SDS011;8578;50.938;13.556;2022-08-01T12:23:33;2.27;;;0.80;;
16922;SDS011;8578;50.938;13.556;2022-08-01T12:26:01;1.10;;;0.93;;
16922;SDS011;8578;50.938;13.556;2022-08-01T12:28:30;1.07;;;0.80;;
16922;SDS011;8578;50.938;13.556;2022-08-01T12:30:59;1.40;;;0.80;;
16922;SDS011;8578;50.938;13.556;2022-08-01T12:33:26;3.50;;;0.70;;
16922;SDS011;8578;50.938;13.556;2022-08-01T12:35:55;5.03;;;0.80;;
16922;SDS011;8578;50.938;13.556;2022-08-01T12:38:23;3.17;;;1.00;;
16922;SDS011;8578;50.938;13.556;2022-08-01T12:40:53;0.60;;;0.60;;
16922;SDS011;8578;50.938;13.556;2022-08-01T12:43:21;0.60;;;0.60;;
16922;SDS011;8578;50.938;13.556;2022-08-01T12:45:54;1.27;;;0.87;;
16922;SDS011;8578;50.938;13.556;2022-08-01T12:48:23;0.90;;;0.70;;
16922;SDS011;8578;50.938;13.556;2022-08-01T12:50:51;6.60;;;0.97;;
16922;SDS011;8578;50.938;13.556;2022-08-01T12:53:21;1.40;;;0.90;;
16922;SDS011;8578;50.938;13.556;2022-08-01T12:55:48;1.47;;;0.73;;
16922;SDS011;8578;50.938;13.556;2022-08-01T12:58:29;0.67;;;0.60;;
16922;SDS011;8578;50.938;13.556;2022-08-01T13:01:02;2.23;;;0.80;;
16922;SDS011;8578;50.938;13.556;2022-08-01T13:03:30;0.70;;;0.70;;
16922;SDS011;8578;50.938;13.556;2022-08-01T13:05:58;1.67;;;0.90;;
16922;SDS011;8578;50.938;13.556;2022-08-01T13:08:30;1.57;;;0.80;;
16922;SDS011;8578;50.938;13.556;2022-08-01T13:11:00;0.50;;;0.50;;
16922;SDS011;8578;50.938;13.556;2022-08-01T13:13:37;0.60;;;0.60;;
16922;SDS011;8578;50.938;13.556;2022-08-01T13:16:05;3.17;;;0.70;;
16922;SDS011;8578;50.938;13.556;2022-08-01T13:18:37;2.03;;;0.80;;
16922;SDS011;8578;50.938;13.556;2022-08-01T13:21:08;0.80;;;0.60;;
16922;SDS011;8578;50.938;13.556;2022-08-01T13:23:38;0.50;;;0.50;;
16922;SDS011;8578;50.938;13.556;2022-08-01T13:26:37;1.60;;;0.60;;
16922;SDS011;8578;50.938;13.556;2022-08-01T13:29:04;0.40;;;0.40;;
16922;SDS011;8578;50.938;13.556;2022-08-01T13:31:33;1.50;;;0.47;;
16922;SDS011;8578;50.938;13.556;2022-08-01T13:34:01;0.30;;;0.30;;
16922;SDS011;8578;50.938;13.556;2022-08-01T13:36:29;0.80;;;0.40;;
16922;SDS011;8578;50.938;13.556;2022-08-01T13:38:59;0.40;;;0.40;;
16922;SDS011;8578;50.938;13.556;2022-08-01T13:41:44;0.60;;;0.50;;
16922;SDS011;8578;50.938;13.556;2022-08-01T13:44:12;0.40;;;0.40;;
16922;SDS011;8578;50.938;13.556;2022-08-01T13:46:40;1.03;;;0.37;;
16922;SDS011;8578;50.938;13.556;2022-08-01T13:49:16;0.53;;;0.30;;
16922;SDS011;8578;50.938;13.556;2022-08-01T13:51:44;0.50;;;0.40;;
16922;SDS011;8578;50.938;13.556;2022-08-01T13:54:13;0.30;;;0.30;;
16922;SDS011;8578;50.938;13.556;2022-08-01T13:56:41;0.73;;;0.40;;
16922;SDS011;8578;50.938;13.556;2022-08-01T13:59:08;0.33;;;0.33;;
16922;SDS011;8578;50.938;13.556;2022-08-01T14:01:36;0.50;;;0.30;;
16922;SDS011;8578;50.938;13.556;2022-08-01T14:04:03;1.20;;;0.60;;
16922;SDS011;8578;50.938;13.556;2022-08-01T14:06:31;1.17;;;0.57;;
16922;SDS011;8578;50.938;13.556;2022-08-01T14:08:58;0.97;;;0.50;;
16922;SDS011;8578;50.938;13.556;2022-08-01T14:11:28;1.60;;;0.40;;
16922;SDS011;8578;50.938;13.556;2022-08-01T14:14:02;1.50;;;0.40;;
16922;SDS011;8578;50.938;13.556;2022-08-01T14:16:33;0.83;;;0.53;;
16922;SDS011;8578;50.938;13.556;2022-08-01T14:19:03;0.80;;;0.60;;
16922;SDS011;8578;50.938;13.556;2022-08-01T14:21:30;1.20;;;0.60;;
16922;SDS011;8578;50.938;13.556;2022-08-01T14:23:58;0.83;;;0.60;;
16922;SDS011;8578;50.938;13.556;2022-08-01T14:26:25;0.60;;;0.60;;
16922;SDS011;8578;50.938;13.556;2022-08-01T14:28:55;2.30;;;0.90;;
16922;SDS011;8578;50.938;13.556;2022-08-01T14:31:22;0.67;;;0.67;;
16922;SDS011;8578;50.938;13.556;2022-08-01T14:33:50;1.47;;;0.70;;
16922;SDS011;8578;50.938;13.556;2022-08-01T14:36:17;3.50;;;0.70;;
16922;SDS011;8578;50.938;13.556;2022-08-01T14:38:56;1.63;;;1.00;;
16922;SDS011;8578;50.938;13.556;2022-08-01T14:41:26;0.90;;;0.80;;
16922;SDS011;8578;50.938;13.556;2022-08-01T14:43:54;0.70;;;0.70;;
16922;SDS011;8578;50.938;13.556;2022-08-01T14:46:22;0.70;;;0.70;;
16922;SDS011;8578;50.938;13.556;2022-08-01T14:48:50;1.53;;;0.90;;
16922;SDS011;8578;50.938;13.556;2022-08-01T14:51:17;1.93;;;0.80;;
16922;SDS011;8578;50.938;13.556;2022-08-01T14:53:45;1.37;;;0.80;;
16922;SDS011;8578;50.938;13.556;2022-08-01T14:56:18;0.80;;;0.80;;
16922;SDS011;8578;50.938;13.556;2022-08-01T14:58:45;1.00;;;0.83;;
16922;SDS011;8578;50.938;13.556;2022-08-01T15:01:15;2.80;;;0.90;;
16922;SDS011;8578;50.938;13.556;2022-08-01T15:03:44;1.57;;;0.87;;
16922;SDS011;8578;50.938;13.556;2022-08-01T15:06:12;1.40;;;0.77;;
16922;SDS011;8578;50.938;13.556;2022-08-01T15:08:39;1.67;;;0.90;;
16922;SDS011;8578;50.938;13.556;2022-08-01T15:11:07;1.67;;;0.90;;
16922;SDS011;8578;50.938;13.556;2022-08-01T15:13:35;1.30;;;1.10;;